createdAt,value
2018-06-23T00:01:04.172Z,62.62
2018-06-23T00:03:32.420Z,62.83
2018-06-23T00:06:00.817Z,63.11
2018-06-23T00:08:29.052Z,63.27
2018-06-23T00:10:57.400Z,63.21
2018-06-23T00:13:25.652Z,63.47
2018-06-23T00:15:53.873Z,63.34
2018-06-23T00:18:22.133Z,63.31
2018-06-23T00:20:50.361Z,63.11
2018-06-23T00:23:18.575Z,63.38
2018-06-23T00:25:52.238Z,63.60
2018-06-23T00:28:20.458Z,64.00
2018-06-23T00:30:48.694Z,63.57
2018-06-23T00:33:16.901Z,63.12
2018-06-23T00:35:45.156Z,63.21
2018-06-23T00:38:13.412Z,63.67
2018-06-23T00:40:41.645Z,62.96
2018-06-23T00:43:09.948Z,63.09
2018-06-23T00:45:38.188Z,62.85
2018-06-23T00:48:06.408Z,63.39
2018-06-23T00:50:34.652Z,63.40
2018-06-23T00:53:02.929Z,64.27
2018-06-23T00:55:31.169Z,64.42
2018-06-23T00:57:59.409Z,64.87
2018-06-23T01:00:27.625Z,64.37
2018-06-23T01:02:55.848Z,65.01
2018-06-23T01:05:24.133Z,64.64
2018-06-23T01:07:52.463Z,64.59
2018-06-23T01:10:20.712Z,65.70
2018-06-23T01:12:48.960Z,65.95
2018-06-23T01:15:17.180Z,65.06
2018-06-23T01:17:45.500Z,65.21
2018-06-23T01:20:13.745Z,65.21
2018-06-23T01:22:42.031Z,65.37
2018-06-23T01:25:10.241Z,65.73
2018-06-23T01:27:38.516Z,65.72
2018-06-23T01:30:06.963Z,65.71
2018-06-23T01:32:35.184Z,65.73
2018-06-23T01:35:03.546Z,65.35
2018-06-23T01:37:31.808Z,65.88
2018-06-23T01:40:00.033Z,65.71
2018-06-23T01:42:28.261Z,65.62
2018-06-23T01:44:56.546Z,65.64
2018-06-23T01:47:24.774Z,65.90
2018-06-23T01:49:52.987Z,65.98
2018-06-23T01:52:21.236Z,66.32
2018-06-23T01:54:49.508Z,65.81
2018-06-23T01:57:17.776Z,66.83
2018-06-23T01:59:45.993Z,66.40
2018-06-23T02:02:14.198Z,67.19
2018-06-23T02:04:42.424Z,66.41
2018-06-23T02:07:10.672Z,66.07
2018-06-23T02:09:38.916Z,67.28
2018-06-23T02:12:07.389Z,66.53
2018-06-23T02:14:41.011Z,66.85
2018-06-23T02:17:14.565Z,66.94
2018-06-23T02:19:48.033Z,66.34
2018-06-23T02:22:21.581Z,66.15
2018-06-23T02:24:55.058Z,66.90
2018-06-23T02:27:28.630Z,66.47
2018-06-23T02:30:02.206Z,66.04
2018-06-23T02:32:35.821Z,66.83
2018-06-23T02:35:05.720Z,66.42
2018-06-23T02:37:36.341Z,66.50
2018-06-23T02:40:05.072Z,66.26
2018-06-23T02:42:33.455Z,66.23
2018-06-23T02:45:01.885Z,67.00
2018-06-23T02:47:30.085Z,67.30
2018-06-23T02:50:00.052Z,67.78
2018-06-23T02:52:29.456Z,66.97
2018-06-23T02:54:57.705Z,67.49
2018-06-23T02:57:25.908Z,67.58
2018-06-23T02:59:54.156Z,66.96
2018-06-23T03:02:22.413Z,66.98
2018-06-23T03:04:50.653Z,67.43
2018-06-23T03:07:18.913Z,67.68
2018-06-23T03:09:47.236Z,67.58
2018-06-23T03:12:15.477Z,66.89
2018-06-23T03:14:43.697Z,67.87
2018-06-23T03:17:17.984Z,67.33
2018-06-23T03:19:48.858Z,66.94
2018-06-23T03:22:17.089Z,66.53
2018-06-23T03:24:45.484Z,67.56
2018-06-23T03:27:13.982Z,66.93
2018-06-23T03:29:42.205Z,67.07
2018-06-23T03:32:11.089Z,67.16
2018-06-23T03:34:39.340Z,67.28
2018-06-23T03:37:07.624Z,67.67
2018-06-23T03:39:35.832Z,67.50
2018-06-23T03:42:04.089Z,66.76
2018-06-23T03:44:32.313Z,66.21
2018-06-23T03:47:00.564Z,65.71
2018-06-23T03:49:28.793Z,66.00
2018-06-23T03:51:57.055Z,65.40
2018-06-23T03:54:25.554Z,65.59
2018-06-23T03:56:53.960Z,65.26
2018-06-23T03:59:22.192Z,66.03
2018-06-23T04:01:50.405Z,66.13
2018-06-23T04:04:18.629Z,65.24
2018-06-23T04:06:46.853Z,65.15
2018-06-23T04:09:15.277Z,65.52
2018-06-23T04:11:43.485Z,66.00
2018-06-23T04:14:11.724Z,64.77
2018-06-23T04:16:39.954Z,66.00
2018-06-23T04:19:08.145Z,65.81
2018-06-23T04:21:36.705Z,65.33
2018-06-23T04:24:04.986Z,64.86
2018-06-23T04:26:33.221Z,65.82
2018-06-23T04:29:01.441Z,66.08
2018-06-23T04:31:29.694Z,65.88
2018-06-23T04:33:57.912Z,66.26
2018-06-23T04:36:26.134Z,66.17
2018-06-23T04:38:54.400Z,66.13
2018-06-23T04:41:22.625Z,65.99
2018-06-23T04:43:51.832Z,66.09
2018-06-23T04:46:20.043Z,67.07
2018-06-23T04:48:48.260Z,67.23
2018-06-23T04:51:16.473Z,67.05
2018-06-23T04:53:46.909Z,66.60
2018-06-23T04:56:15.954Z,67.11
2018-06-23T04:58:44.247Z,67.03
2018-06-23T05:01:12.705Z,67.32
2018-06-23T05:03:41.273Z,66.40
2018-06-23T05:06:09.665Z,66.36
2018-06-23T05:08:38.784Z,66.37
2018-06-23T05:11:07.301Z,67.02
2018-06-23T05:13:35.786Z,67.26
2018-06-23T05:16:04.525Z,66.02
2018-06-23T05:18:32.906Z,66.67
2018-06-23T05:21:01.364Z,66.79
2018-06-23T05:23:30.245Z,67.03
2018-06-23T05:25:58.692Z,66.46
2018-06-23T05:28:26.857Z,66.71
2018-06-23T05:30:55.126Z,66.75
2018-06-23T05:33:23.923Z,65.77
2018-06-23T05:35:52.673Z,66.62
2018-06-23T05:38:20.976Z,66.73
2018-06-23T05:40:49.256Z,65.91
2018-06-23T05:43:17.500Z,66.12
2018-06-23T05:45:45.744Z,66.52
2018-06-23T05:48:14.088Z,66.07
2018-06-23T05:50:42.421Z,67.07
2018-06-23T05:53:10.677Z,66.92
2018-06-23T05:55:38.948Z,66.63
2018-06-23T05:58:07.184Z,66.79
2018-06-23T06:00:35.842Z,65.93
2018-06-23T06:03:04.158Z,65.70
2018-06-23T06:05:32.457Z,66.95
2018-06-23T06:08:00.717Z,65.49
2018-06-23T06:10:28.990Z,66.13
2018-06-23T06:12:57.249Z,65.90
2018-06-23T06:15:25.477Z,65.61
2018-06-23T06:17:53.764Z,66.19
2018-06-23T06:20:22.013Z,65.27
2018-06-23T06:22:50.245Z,66.08
2018-06-23T06:25:20.412Z,66.02
2018-06-23T06:27:48.800Z,66.41
2018-06-23T06:30:17.126Z,65.64
2018-06-23T06:32:45.371Z,66.45
2018-06-23T06:35:13.644Z,66.44
2018-06-23T06:37:48.255Z,65.37
2018-06-23T06:40:16.455Z,66.04
2018-06-23T06:42:44.924Z,66.16
2018-06-23T06:45:13.128Z,65.05
2018-06-23T06:47:41.360Z,65.70
2018-06-23T06:50:09.629Z,65.61
2018-06-23T06:52:37.841Z,65.54
2018-06-23T06:55:06.076Z,66.17
2018-06-23T06:57:37.499Z,66.71
2018-06-23T07:00:06.485Z,65.42
2018-06-23T07:02:34.697Z,65.47
2018-06-23T07:05:02.972Z,65.57
2018-06-23T07:07:31.267Z,65.82
2018-06-23T07:09:59.541Z,65.52
2018-06-23T07:12:27.761Z,66.76
2018-06-23T07:14:55.998Z,65.33
2018-06-23T07:17:24.221Z,65.45
2018-06-23T07:19:52.482Z,64.99
2018-06-23T07:22:20.749Z,65.57
2018-06-23T07:24:49.007Z,65.65
2018-06-23T07:27:17.259Z,66.48
2018-06-23T07:29:45.493Z,66.59
2018-06-23T07:32:13.747Z,68.64
2018-06-23T07:34:42.064Z,68.86
2018-06-23T07:37:10.248Z,70.22
2018-06-23T07:39:38.472Z,70.59
2018-06-23T07:42:06.697Z,69.72
2018-06-23T07:44:34.912Z,69.39
2018-06-23T07:47:03.177Z,69.01
2018-06-23T07:49:31.719Z,70.09
2018-06-23T07:52:00.036Z,70.73
2018-06-23T07:54:28.409Z,70.85
2018-06-23T07:56:56.632Z,70.93
2018-06-23T07:59:25.019Z,71.12
2018-06-23T08:01:53.309Z,72.09
2018-06-23T08:04:22.053Z,73.79
2018-06-23T08:06:50.293Z,72.75
2018-06-23T08:09:18.846Z,71.79
2018-06-23T08:11:47.114Z,71.56
2018-06-23T08:14:16.477Z,70.54
2018-06-23T08:16:44.738Z,70.28
2018-06-23T08:19:12.952Z,70.29
2018-06-23T08:21:41.193Z,70.82
2018-06-23T08:24:09.412Z,69.19
2018-06-23T08:26:37.716Z,69.59
2018-06-23T08:29:05.907Z,68.49
2018-06-23T08:31:34.126Z,69.30
2018-06-23T08:34:02.383Z,67.71
2018-06-23T08:36:30.809Z,68.25
2018-06-23T08:38:59.049Z,66.84
2018-06-23T08:41:27.326Z,66.04
2018-06-23T08:43:55.567Z,67.53
2018-06-23T08:46:23.796Z,67.22
2018-06-23T08:48:52.033Z,68.10
2018-06-23T08:51:20.516Z,68.29
2018-06-23T08:53:48.827Z,66.81
2018-06-23T08:56:17.049Z,66.22
2018-06-23T08:58:45.268Z,65.52
2018-06-23T09:01:13.517Z,64.28
2018-06-23T09:03:41.761Z,64.99
2018-06-23T09:06:09.965Z,64.38
2018-06-23T09:08:38.176Z,65.02
2018-06-23T09:11:06.506Z,64.77
2018-06-23T09:13:34.775Z,64.82
2018-06-23T09:16:02.985Z,65.55
2018-06-23T09:18:31.312Z,65.29
2018-06-23T09:20:59.612Z,63.88
2018-06-23T09:23:27.836Z,64.27
2018-06-23T09:25:56.163Z,64.51
2018-06-23T09:28:24.421Z,63.45
2018-06-23T09:30:52.649Z,64.11
2018-06-23T09:33:20.892Z,64.15
2018-06-23T09:35:49.151Z,64.59
2018-06-23T09:38:17.465Z,63.98
2018-06-23T09:40:45.793Z,61.88
2018-06-23T09:43:13.986Z,61.23
2018-06-23T09:45:42.448Z,61.77
2018-06-23T09:48:10.984Z,61.36
2018-06-23T09:50:39.197Z,62.35
2018-06-23T09:53:07.491Z,61.93
2018-06-23T09:55:35.720Z,61.35
2018-06-23T09:58:03.992Z,61.81
2018-06-23T10:00:32.229Z,62.08
2018-06-23T10:03:01.669Z,63.14
2018-06-23T10:05:30.157Z,62.92
2018-06-23T10:07:59.281Z,62.09
2018-06-23T10:10:27.692Z,62.75
2018-06-23T10:12:56.052Z,62.88
2018-06-23T10:15:24.371Z,62.69
2018-06-23T10:17:52.784Z,61.89
2018-06-23T10:20:21.057Z,62.92
2018-06-23T10:22:49.240Z,62.77
2018-06-23T10:25:17.576Z,62.45
2018-06-23T10:27:45.799Z,61.21
2018-06-23T10:30:14.062Z,61.39
2018-06-23T10:32:42.285Z,61.57
2018-06-23T10:35:10.549Z,61.51
2018-06-23T10:37:38.832Z,60.40
2018-06-23T10:40:07.137Z,61.01
2018-06-23T10:42:35.345Z,60.85
2018-06-23T10:45:03.743Z,60.72
2018-06-23T10:47:31.940Z,61.96
2018-06-23T10:50:00.176Z,61.72
2018-06-23T10:52:28.785Z,61.35
2018-06-23T10:54:57.040Z,61.97
2018-06-23T10:57:25.341Z,60.96
2018-06-23T10:59:53.676Z,61.60
2018-06-23T11:02:21.929Z,61.71
2018-06-23T11:04:50.284Z,61.05
2018-06-23T11:07:18.513Z,61.73
2018-06-23T11:09:46.748Z,61.67
2018-06-23T11:12:14.990Z,61.85
2018-06-23T11:14:43.231Z,63.94
2018-06-23T11:17:11.485Z,65.54
2018-06-23T11:19:39.796Z,63.43
2018-06-23T11:22:08.037Z,64.18
2018-06-23T11:24:36.686Z,63.07
2018-06-23T11:27:04.830Z,62.89
2018-06-23T11:29:33.083Z,62.32
2018-06-23T11:32:01.417Z,61.43
2018-06-23T11:34:29.698Z,62.36
2018-06-23T11:36:58.148Z,61.56
2018-06-23T11:39:26.393Z,60.33
2018-06-23T11:41:54.621Z,59.53
2018-06-23T11:44:22.920Z,59.03
2018-06-23T11:46:51.145Z,59.19
2018-06-23T11:49:19.384Z,59.93
2018-06-23T11:51:47.688Z,59.21
2018-06-23T11:54:15.924Z,58.44
2018-06-23T11:56:44.176Z,59.35
2018-06-23T11:59:12.376Z,59.83
2018-06-23T12:01:40.733Z,60.23
2018-06-23T12:04:08.992Z,58.91
2018-06-23T12:06:37.328Z,58.90
2018-06-23T12:09:07.896Z,59.84
2018-06-23T12:11:36.164Z,59.99
2018-06-23T12:14:04.386Z,60.55
2018-06-23T12:16:32.722Z,61.55
2018-06-23T12:19:01.137Z,62.08
2018-06-23T12:21:29.385Z,62.32
2018-06-23T12:23:57.646Z,62.33
2018-06-23T12:26:25.894Z,61.29
2018-06-23T12:28:54.164Z,61.54
2018-06-23T12:31:22.383Z,61.16
2018-06-23T12:33:50.617Z,61.53
2018-06-23T12:36:18.859Z,60.80
2018-06-23T12:38:47.110Z,62.12
2018-06-23T12:41:15.337Z,61.64
2018-06-23T12:43:43.637Z,61.27
2018-06-23T12:46:11.905Z,60.68
2018-06-23T12:48:40.271Z,60.43
2018-06-23T12:51:09.232Z,60.71
2018-06-23T12:53:37.493Z,61.92
2018-06-23T12:56:05.849Z,60.27
2018-06-23T12:58:34.216Z,60.70
2018-06-23T13:01:02.542Z,61.26
2018-06-23T13:03:30.833Z,61.20
2018-06-23T13:05:59.121Z,62.06
2018-06-23T13:08:27.341Z,60.69
2018-06-23T13:10:55.587Z,60.03
2018-06-23T13:13:23.837Z,59.97
2018-06-23T13:15:52.107Z,59.36
2018-06-23T13:18:20.368Z,58.66
2018-06-23T13:20:48.693Z,58.24
2018-06-23T13:23:16.980Z,57.14
2018-06-23T13:25:45.212Z,57.08
2018-06-23T13:28:13.518Z,57.83
2018-06-23T13:30:41.818Z,57.23
2018-06-23T13:33:10.045Z,56.91
2018-06-23T13:35:38.275Z,57.17
2018-06-23T13:38:06.596Z,57.69
2018-06-23T13:40:34.938Z,57.73
2018-06-23T13:43:03.191Z,57.08
2018-06-23T13:45:31.525Z,58.01
2018-06-23T13:47:59.781Z,56.94
2018-06-23T13:50:28.033Z,57.16
2018-06-23T13:52:56.297Z,56.46
2018-06-23T13:55:24.651Z,57.55
2018-06-23T13:57:52.904Z,56.64
2018-06-23T14:00:21.189Z,56.30
2018-06-23T14:02:49.497Z,55.97
2018-06-23T14:05:17.753Z,56.39
2018-06-23T14:07:45.968Z,56.76
2018-06-23T14:10:14.237Z,56.86
2018-06-23T14:12:42.493Z,57.17
2018-06-23T14:15:10.802Z,56.98
2018-06-23T14:17:39.244Z,56.80
2018-06-23T14:20:07.569Z,56.14
2018-06-23T14:22:35.822Z,56.37
2018-06-23T14:25:04.185Z,54.65
2018-06-23T14:27:32.682Z,55.37
2018-06-23T14:30:01.476Z,55.00
2018-06-23T14:32:30.185Z,54.87
2018-06-23T14:34:58.420Z,53.99
2018-06-23T14:37:26.716Z,53.48
2018-06-23T14:39:54.978Z,53.95
2018-06-23T14:42:24.249Z,54.14
2018-06-23T14:44:52.520Z,53.25
2018-06-23T14:47:22.558Z,52.02
2018-06-23T14:50:14.070Z,52.96
2018-06-23T14:55:33.986Z,53.17
2018-06-23T14:58:05.122Z,52.81
2018-06-23T15:00:36.170Z,53.59
2018-06-23T15:03:05.754Z,55.38
2018-06-23T15:05:34.005Z,54.10
2018-06-23T15:09:14.324Z,52.90
2018-06-23T15:11:53.850Z,52.87
2018-06-23T15:14:22.569Z,54.00
2018-06-23T15:16:50.867Z,54.60
2018-06-23T15:19:19.072Z,54.75
2018-06-23T15:21:47.374Z,54.41
2018-06-23T15:24:15.743Z,54.96
2018-06-23T15:26:44.037Z,54.33
2018-06-23T15:29:12.281Z,54.04
2018-06-23T15:31:40.589Z,54.27
2018-06-23T15:34:08.912Z,54.26
2018-06-23T15:36:37.200Z,52.57
2018-06-23T15:39:07.809Z,53.21
2018-06-23T15:41:36.061Z,53.44
2018-06-23T15:44:04.328Z,53.24
2018-06-23T15:46:32.688Z,54.03
2018-06-23T15:49:01.045Z,51.82
2018-06-23T15:51:29.293Z,51.61
2018-06-23T15:53:57.581Z,50.51
2018-06-23T15:56:25.822Z,51.15
2018-06-23T15:58:54.084Z,50.86
2018-06-23T16:01:22.375Z,51.64
2018-06-23T16:03:50.638Z,52.31
2018-06-23T16:06:19.051Z,50.94
2018-06-23T16:08:47.387Z,50.38
2018-06-23T16:11:15.591Z,48.27
2018-06-23T16:13:43.877Z,48.27
2018-06-23T16:16:12.142Z,48.86
2018-06-23T16:18:40.445Z,49.17
2018-06-23T16:21:08.668Z,48.76
2018-06-23T16:23:36.996Z,49.87
2018-06-23T16:26:05.313Z,50.58
2018-06-23T16:28:33.621Z,51.05
2018-06-23T16:31:01.962Z,51.90
2018-06-23T16:33:30.280Z,50.95
2018-06-23T16:35:58.683Z,50.85
2018-06-23T16:38:26.938Z,50.56
2018-06-23T16:40:55.210Z,51.29
2018-06-23T16:43:23.437Z,51.17
2018-06-23T16:45:51.680Z,52.26
2018-06-23T16:48:19.931Z,51.51
2018-06-23T16:50:48.181Z,52.09
2018-06-23T16:53:16.505Z,51.67
2018-06-23T16:55:44.761Z,51.66
2018-06-23T16:58:13.196Z,51.04
2018-06-23T17:00:41.621Z,51.24
2018-06-23T17:03:09.961Z,52.67
2018-06-23T17:05:38.197Z,50.85
2018-06-23T17:08:06.464Z,49.54
2018-06-23T17:10:34.748Z,48.41
2018-06-23T17:13:02.977Z,48.56
2018-06-23T17:15:31.271Z,49.35
2018-06-23T17:17:59.524Z,50.59
2018-06-23T17:20:27.817Z,51.44
2018-06-23T17:22:56.085Z,53.31
2018-06-23T17:25:24.377Z,53.00
2018-06-23T17:27:52.625Z,53.20
2018-06-23T17:30:20.925Z,53.12
2018-06-23T17:32:49.256Z,52.73
2018-06-23T17:35:17.568Z,53.78
2018-06-23T17:37:45.864Z,54.53
2018-06-23T17:40:14.138Z,53.04
2018-06-23T17:42:42.385Z,52.64
2018-06-23T17:45:10.858Z,52.27
2018-06-23T17:47:39.208Z,52.64
2018-06-23T17:50:07.758Z,52.90
2018-06-23T17:52:36.369Z,53.14
2018-06-23T17:55:05.768Z,52.57
2018-06-23T17:57:34.306Z,51.96
2018-06-23T18:00:02.943Z,50.33
2018-06-23T18:02:31.219Z,50.41
2018-06-23T18:04:59.529Z,50.04
2018-06-23T18:07:27.857Z,51.55
2018-06-23T18:09:56.142Z,52.05
2018-06-23T18:12:24.456Z,51.49
2018-06-23T18:14:52.757Z,52.20
2018-06-23T18:17:21.042Z,52.53
2018-06-23T18:19:49.469Z,52.07
2018-06-23T18:22:17.768Z,52.58
2018-06-23T18:24:46.041Z,52.08
2018-06-23T18:27:14.361Z,52.48
2018-06-23T18:29:42.588Z,52.70
2018-06-23T18:32:10.845Z,53.25
2018-06-23T18:34:39.081Z,53.09
2018-06-23T18:37:07.345Z,53.17
2018-06-23T18:39:35.584Z,53.82
2018-06-23T18:42:03.881Z,54.23
2018-06-23T18:44:32.097Z,54.46
2018-06-23T18:47:00.409Z,54.26
2018-06-23T18:49:28.641Z,54.21
2018-06-23T18:51:57.029Z,55.76
2018-06-23T18:54:25.272Z,56.21
2018-06-23T18:56:53.550Z,55.39
2018-06-23T18:59:21.824Z,56.02
2018-06-23T19:01:50.045Z,56.77
2018-06-23T19:04:18.341Z,57.54
2018-06-23T19:06:46.681Z,57.18
2018-06-23T19:09:15.015Z,57.89
2018-06-23T19:11:44.289Z,58.14
2018-06-23T19:14:12.528Z,59.11
2018-06-23T19:16:40.776Z,59.11
2018-06-23T19:19:09.020Z,58.81
2018-06-23T19:21:37.348Z,58.51
2018-06-23T19:24:05.868Z,57.89
2018-06-23T19:26:34.108Z,57.75
2018-06-23T19:29:02.390Z,57.60
2018-06-23T19:31:30.645Z,56.74
2018-06-23T19:33:59.014Z,57.93
2018-06-23T19:36:27.256Z,58.79
2018-06-23T19:38:55.607Z,59.22
2018-06-23T19:41:26.877Z,59.22
2018-06-23T19:43:55.227Z,58.86
2018-06-23T19:46:23.463Z,60.19
2018-06-23T19:48:51.947Z,59.51
2018-06-23T19:51:20.189Z,60.78
2018-06-23T19:53:48.614Z,60.65
2018-06-23T19:56:16.796Z,60.09
2018-06-23T19:58:45.014Z,60.48
2018-06-23T20:01:13.354Z,60.68
2018-06-23T20:03:41.650Z,60.78
2018-06-23T20:06:09.917Z,60.23
2018-06-23T20:08:38.200Z,60.70
2018-06-23T20:11:06.601Z,60.72
2018-06-23T20:13:34.817Z,62.11
2018-06-23T20:16:03.066Z,62.66
2018-06-23T20:18:31.417Z,61.42
2018-06-23T20:20:59.689Z,62.21
2018-06-23T20:23:28.017Z,62.37
2018-06-23T20:25:56.259Z,61.99
2018-06-23T20:28:24.553Z,63.15
2018-06-23T20:30:52.752Z,62.86
2018-06-23T20:33:21.096Z,63.72
2018-06-23T20:35:49.364Z,62.97
2018-06-23T20:38:17.700Z,64.33
2018-06-23T20:40:45.961Z,64.36
2018-06-23T20:43:14.165Z,64.90
2018-06-23T20:45:42.446Z,64.44
2018-06-23T20:48:10.797Z,64.79
2018-06-23T20:50:39.035Z,64.20
2018-06-23T20:53:07.348Z,65.20
2018-06-23T20:55:35.547Z,64.90
2018-06-23T20:58:03.977Z,65.64
2018-06-23T21:00:32.217Z,65.22
2018-06-23T21:03:00.456Z,66.08
2018-06-23T21:05:28.721Z,66.24
2018-06-23T21:07:56.966Z,65.71
2018-06-23T21:10:38.969Z,66.21
2018-06-23T21:13:07.204Z,66.47
2018-06-23T21:15:35.789Z,67.34
2018-06-23T21:18:04.045Z,67.61
2018-06-23T21:20:32.753Z,67.73
2018-06-23T21:23:01.436Z,67.23
2018-06-23T21:25:29.768Z,66.92
2018-06-23T21:27:58.107Z,67.72
2018-06-23T21:30:26.353Z,67.64
2018-06-23T21:32:55.013Z,67.91
2018-06-23T21:35:24.537Z,67.68
2018-06-23T21:37:52.893Z,67.97
2018-06-23T21:40:21.213Z,66.90
2018-06-23T21:42:49.445Z,67.98
2018-06-23T21:45:17.757Z,68.17
2018-06-23T21:47:46.057Z,68.49
2018-06-23T21:50:14.317Z,68.04
2018-06-23T21:52:42.532Z,68.18
2018-06-23T21:55:10.753Z,67.61
2018-06-23T21:57:39.058Z,68.23
2018-06-23T22:00:20.877Z,67.51
2018-06-23T22:02:49.150Z,68.25
2018-06-23T22:05:17.385Z,68.31
2018-06-23T22:07:45.641Z,68.32
2018-06-23T22:10:13.893Z,68.46
2018-06-23T22:12:42.149Z,68.20
2018-06-23T22:15:10.431Z,67.81
2018-06-23T22:17:38.695Z,68.33
2018-06-23T22:20:07.867Z,68.34
2018-06-23T22:22:36.172Z,68.16
2018-06-23T22:25:04.500Z,68.74
2018-06-23T22:27:32.755Z,68.43
2018-06-23T22:30:01.018Z,68.34
2018-06-23T22:32:29.266Z,68.25
2018-06-23T22:34:57.548Z,67.90
2018-06-23T22:37:25.822Z,67.97
2018-06-23T22:39:54.100Z,68.14
2018-06-23T22:42:22.345Z,67.88
2018-06-23T22:44:50.548Z,68.05
2018-06-23T22:47:18.877Z,68.34
2018-06-23T22:49:47.129Z,67.73
2018-06-23T22:52:15.402Z,67.60
2018-06-23T22:54:43.650Z,67.99
2018-06-23T22:57:11.909Z,68.12
2018-06-23T22:59:40.107Z,68.20
2018-06-23T23:02:08.402Z,67.79
2018-06-23T23:04:36.736Z,67.71
2018-06-23T23:07:05.225Z,68.30
2018-06-23T23:09:33.461Z,68.09
2018-06-23T23:12:01.997Z,68.49
2018-06-23T23:14:30.241Z,68.60
2018-06-23T23:16:58.613Z,68.02
2018-06-23T23:19:27.081Z,68.57
2018-06-23T23:21:55.352Z,68.85
2018-06-23T23:24:23.774Z,68.85
2018-06-23T23:26:52.089Z,67.62
2018-06-23T23:29:20.345Z,68.76
2018-06-23T23:31:48.604Z,68.16
2018-06-23T23:34:16.884Z,69.10
2018-06-23T23:36:45.113Z,69.02
2018-06-23T23:39:13.379Z,68.89
2018-06-23T23:41:41.616Z,69.05
2018-06-23T23:44:09.879Z,69.07
2018-06-23T23:46:38.121Z,68.42
2018-06-23T23:49:06.404Z,68.78
2018-06-23T23:51:34.657Z,68.28
2018-06-23T23:54:02.933Z,69.38
2018-06-23T23:56:31.257Z,69.57
2018-06-23T23:58:59.531Z,69.39
